sensor_id;sensor_type;location;lat;lon;timestamp;pressure;altitude;pressure_sealevel;temperature;humidity
65394;BME280;52002;49.760;6.512;2023-10-31T13:40:31;98994.38;;;14.12;72.69
65394;BME280;52002;49.760;6.512;2023-10-31T13:42:56;98998.86;;;14.14;72.60
65394;BME280;52002;49.760;6.512;2023-10-31T13:45:21;99005.08;;;14.22;72.68
65394;BME280;52002;49.760;6.512;2023-10-31T13:47:47;99006.48;;;14.26;72.69
65394;BME280;52002;49.760;6.512;2023-10-31T13:50:12;99006.19;;;14.24;72.67
65394;BME280;52002;49.760;6.512;2023-10-31T13:52:37;99003.93;;;14.25;72.77
65394;BME280;52002;49.760;6.512;2023-10-31T13:55:04;99003.44;;;14.25;72.91
65394;BME280;52002;49.760;6.512;2023-10-31T13:57:30;99001.23;;;14.21;72.76
65394;BME280;52002;49.760;6.512;2023-10-31T13:59:55;98996.52;;;14.17;72.98
65394;BME280;52002;49.760;6.512;2023-10-31T14:02:20;98994.45;;;14.14;72.88
65394;BME280;52002;49.760;6.512;2023-10-31T14:04:46;98989.50;;;14.11;72.90
65394;BME280;52002;49.760;6.512;2023-10-31T14:07:20;98996.36;;;14.12;73.20
65394;BME280;52002;49.760;6.512;2023-10-31T14:09:47;98998.36;;;14.10;73.30
65394;BME280;52002;49.760;6.512;2023-10-31T14:12:13;99000.13;;;14.04;73.33
65394;BME280;52002;49.760;6.512;2023-10-31T14:14:38;98998.53;;;13.99;73.42
65394;BME280;52002;49.760;6.512;2023-10-31T14:17:03;98994.30;;;13.98;73.48
65394;BME280;52002;49.760;6.512;2023-10-31T14:19:30;98999.38;;;14.06;73.65
65394;BME280;52002;49.760;6.512;2023-10-31T14:21:55;99000.33;;;14.12;73.79
65394;BME280;52002;49.760;6.512;2023-10-31T14:24:20;99002.05;;;14.23;73.59
65394;BME280;52002;49.760;6.512;2023-10-31T14:26:47;99009.23;;;14.35;73.45
65394;BME280;52002;49.760;6.512;2023-10-31T14:29:12;99014.04;;;14.42;73.43
65394;BME280;52002;49.760;6.512;2023-10-31T14:31:39;99017.44;;;14.46;73.35
65394;BME280;52002;49.760;6.512;2023-10-31T14:34:05;99021.77;;;14.39;73.15
65394;BME280;52002;49.760;6.512;2023-10-31T14:36:31;99024.98;;;14.29;73.26
65394;BME280;52002;49.760;6.512;2023-10-31T14:38:57;99024.48;;;14.18;73.50
65394;BME280;52002;49.760;6.512;2023-10-31T14:41:22;99026.52;;;14.10;73.69
65394;BME280;52002;49.760;6.512;2023-10-31T14:43:48;99029.38;;;14.13;73.93
65394;BME280;52002;49.760;6.512;2023-10-31T14:46:13;99028.56;;;14.17;74.15
65394;BME280;52002;49.760;6.512;2023-10-31T14:48:39;99029.23;;;14.19;73.81
65394;BME280;52002;49.760;6.512;2023-10-31T14:51:04;99030.02;;;14.18;73.58
65394;BME280;52002;49.760;6.512;2023-10-31T14:53:29;99026.34;;;14.15;73.49
65394;BME280;52002;49.760;6.512;2023-10-31T14:55:55;99029.84;;;14.09;73.57
65394;BME280;52002;49.760;6.512;2023-10-31T14:58:20;99030.54;;;14.03;73.73
65394;BME280;52002;49.760;6.512;2023-10-31T15:00:46;99032.86;;;13.96;73.83
65394;BME280;52002;49.760;6.512;2023-10-31T15:03:11;99041.11;;;13.89;73.93
65394;BME280;52002;49.760;6.512;2023-10-31T15:05:36;99043.77;;;13.83;74.22
65394;BME280;52002;49.760;6.512;2023-10-31T15:08:02;99048.86;;;13.76;74.52
65394;BME280;52002;49.760;6.512;2023-10-31T15:10:27;99050.79;;;13.69;74.86
65394;BME280;52002;49.760;6.512;2023-10-31T15:12:54;99055.77;;;13.65;75.31
65394;BME280;52002;49.760;6.512;2023-10-31T15:15:19;99055.46;;;13.60;75.68
65394;BME280;52002;49.760;6.512;2023-10-31T15:17:45;99057.95;;;13.55;75.98
65394;BME280;52002;49.760;6.512;2023-10-31T15:20:13;99061.94;;;13.50;76.24
65394;BME280;52002;49.760;6.512;2023-10-31T15:22:41;99061.44;;;13.45;76.55
65394;BME280;52002;49.760;6.512;2023-10-31T15:25:10;99060.85;;;13.44;77.18
65394;BME280;52002;49.760;6.512;2023-10-31T15:27:36;99062.99;;;13.42;77.46
65394;BME280;52002;49.760;6.512;2023-10-31T15:30:03;99067.41;;;13.43;77.74
65394;BME280;52002;49.760;6.512;2023-10-31T15:32:28;99073.93;;;13.41;77.94
65394;BME280;52002;49.760;6.512;2023-10-31T15:34:54;99079.80;;;13.36;78.22
65394;BME280;52002;49.760;6.512;2023-10-31T15:37:19;99082.35;;;13.31;78.23
65394;BME280;52002;49.760;6.512;2023-10-31T15:39:46;99084.13;;;13.26;78.34
65394;BME280;52002;49.760;6.512;2023-10-31T15:42:14;99083.55;;;13.22;78.74
65394;BME280;52002;49.760;6.512;2023-10-31T15:44:40;99087.95;;;13.17;78.54
65394;BME280;52002;49.760;6.512;2023-10-31T15:47:06;99091.36;;;13.13;78.96
65394;BME280;52002;49.760;6.512;2023-10-31T15:49:32;99097.91;;;13.09;78.99
65394;BME280;52002;49.760;6.512;2023-10-31T15:51:57;99105.84;;;13.05;79.19
65394;BME280;52002;49.760;6.512;2023-10-31T15:54:23;99109.10;;;13.03;79.35
65394;BME280;52002;49.760;6.512;2023-10-31T15:56:49;99109.06;;;13.01;79.60
65394;BME280;52002;49.760;6.512;2023-10-31T15:59:14;99108.80;;;12.99;79.78
65394;BME280;52002;49.760;6.512;2023-10-31T16:01:40;99109.77;;;12.96;79.72
65394;BME280;52002;49.760;6.512;2023-10-31T16:04:06;99107.08;;;12.91;79.81
65394;BME280;52002;49.760;6.512;2023-10-31T16:06:31;99111.95;;;12.85;79.86
65394;BME280;52002;49.760;6.512;2023-10-31T16:08:57;99113.77;;;12.82;80.01
65394;BME280;52002;49.760;6.512;2023-10-31T16:11:22;99115.30;;;12.78;80.26
65394;BME280;52002;49.760;6.512;2023-10-31T16:13:48;99109.48;;;12.74;80.33
65394;BME280;52002;49.760;6.512;2023-10-31T16:16:14;99118.06;;;12.71;80.33
65394;BME280;52002;49.760;6.512;2023-10-31T16:18:39;99123.62;;;12.67;80.47
65394;BME280;52002;49.760;6.512;2023-10-31T16:21:05;99126.27;;;12.64;80.54
65394;BME280;52002;49.760;6.512;2023-10-31T16:23:33;99125.48;;;12.62;80.79
65394;BME280;52002;49.760;6.512;2023-10-31T16:25:59;99125.88;;;12.62;80.93
65394;BME280;52002;49.760;6.512;2023-10-31T16:28:24;99129.38;;;12.60;80.99
65394;BME280;52002;49.760;6.512;2023-10-31T16:30:49;99131.23;;;12.58;81.01
65394;BME280;52002;49.760;6.512;2023-10-31T16:33:15;99136.27;;;12.56;81.08
65394;BME280;52002;49.760;6.512;2023-10-31T16:35:41;99140.97;;;12.54;81.28
65394;BME280;52002;49.760;6.512;2023-10-31T16:38:07;99140.67;;;12.53;81.38
65394;BME280;52002;49.760;6.512;2023-10-31T16:40:32;99144.08;;;12.52;81.34
65394;BME280;52002;49.760;6.512;2023-10-31T16:42:58;99152.25;;;12.50;81.67
65394;BME280;52002;49.760;6.512;2023-10-31T16:45:23;99157.34;;;12.50;81.68
65394;BME280;52002;49.760;6.512;2023-10-31T16:47:49;99160.55;;;12.48;81.74
65394;BME280;52002;49.760;6.512;2023-10-31T16:50:14;99161.65;;;12.48;81.97
65394;BME280;52002;49.760;6.512;2023-10-31T16:52:40;99163.94;;;12.46;81.80
65394;BME280;52002;49.760;6.512;2023-10-31T16:55:05;99168.93;;;12.47;81.89
65394;BME280;52002;49.760;6.512;2023-10-31T16:57:31;99170.94;;;12.46;82.12
65394;BME280;52002;49.760;6.512;2023-10-31T16:59:56;99176.19;;;12.45;82.10
65394;BME280;52002;49.760;6.512;2023-10-31T17:02:21;99178.73;;;12.45;82.22
65394;BME280;52002;49.760;6.512;2023-10-31T17:04:47;99179.52;;;12.44;82.21
65394;BME280;52002;49.760;6.512;2023-10-31T17:07:12;99187.84;;;12.45;82.44
65394;BME280;52002;49.760;6.512;2023-10-31T17:09:38;99190.81;;;12.45;82.41
65394;BME280;52002;49.760;6.512;2023-10-31T17:12:03;99193.66;;;12.45;82.58
65394;BME280;52002;49.760;6.512;2023-10-31T17:14:28;99191.20;;;12.47;82.61
65394;BME280;52002;49.760;6.512;2023-10-31T17:16:54;99191.08;;;12.46;82.66
65394;BME280;52002;49.760;6.512;2023-10-31T17:19:20;99198.48;;;12.47;82.64
65394;BME280;52002;49.760;6.512;2023-10-31T17:21:45;99207.41;;;12.45;82.49
65394;BME280;52002;49.760;6.512;2023-10-31T17:24:12;99207.74;;;12.44;82.58
65394;BME280;52002;49.760;6.512;2023-10-31T17:26:38;99211.00;;;12.42;82.67
65394;BME280;52002;49.760;6.512;2023-10-31T17:29:03;99214.64;;;12.40;82.48
65394;BME280;52002;49.760;6.512;2023-10-31T17:31:28;99215.48;;;12.34;82.48
65394;BME280;52002;49.760;6.512;2023-10-31T17:33:54;99225.23;;;12.29;82.60
65394;BME280;52002;49.760;6.512;2023-10-31T17:36:22;99223.14;;;12.23;82.54
65394;BME280;52002;49.760;6.512;2023-10-31T17:38:48;99213.46;;;12.19;82.71
65394;BME280;52002;49.760;6.512;2023-10-31T17:41:13;99218.78;;;12.14;82.82
65394;BME280;52002;49.760;6.512;2023-10-31T17:43:38;99225.90;;;12.08;82.80
65394;BME280;52002;49.760;6.512;2023-10-31T17:46:04;99232.84;;;12.03;82.80
65394;BME280;52002;49.760;6.512;2023-10-31T17:48:29;99234.54;;;11.98;83.02
65394;BME280;52002;49.760;6.512;2023-10-31T17:50:55;99236.52;;;11.96;83.37
65394;BME280;52002;49.760;6.512;2023-10-31T17:53:21;99236.77;;;11.95;83.49
65394;BME280;52002;49.760;6.512;2023-10-31T17:55:46;99231.41;;;11.94;83.60
65394;BME280;52002;49.760;6.512;2023-10-31T17:58:13;99238.50;;;11.95;83.63
65394;BME280;52002;49.760;6.512;2023-10-31T18:00:39;99245.05;;;11.94;83.37
65394;BME280;52002;49.760;6.512;2023-10-31T18:03:04;99244.58;;;11.91;83.48
65394;BME280;52002;49.760;6.512;2023-10-31T18:05:29;99243.45;;;11.90;83.31
65394;BME280;52002;49.760;6.512;2023-10-31T18:07:54;99250.98;;;11.90;83.40
65394;BME280;52002;49.760;6.512;2023-10-31T18:10:20;99259.44;;;11.89;83.41
65394;BME280;52002;49.760;6.512;2023-10-31T18:12:46;99261.34;;;11.90;83.45
65394;BME280;52002;49.760;6.512;2023-10-31T18:15:16;99258.02;;;11.91;83.56
65394;BME280;52002;49.760;6.512;2023-10-31T18:17:42;99256.10;;;11.90;83.58
65394;BME280;52002;49.760;6.512;2023-10-31T18:20:08;99259.14;;;11.88;83.64
65394;BME280;52002;49.760;6.512;2023-10-31T18:22:36;99271.83;;;11.86;83.46
65394;BME280;52002;49.760;6.512;2023-10-31T18:25:03;99275.98;;;11.84;83.44
65394;BME280;52002;49.760;6.512;2023-10-31T18:27:28;99279.86;;;11.85;83.63
65394;BME280;52002;49.760;6.512;2023-10-31T18:29:53;99281.42;;;11.85;83.92
65394;BME280;52002;49.760;6.512;2023-10-31T18:32:20;99286.27;;;11.85;83.89
65394;BME280;52002;49.760;6.512;2023-10-31T18:34:50;99287.41;;;11.84;83.78
65394;BME280;52002;49.760;6.512;2023-10-31T18:37:16;99290.69;;;11.83;83.91
65394;BME280;52002;49.760;6.512;2023-10-31T18:39:42;99282.48;;;11.83;84.05
65394;BME280;52002;49.760;6.512;2023-10-31T18:42:08;99283.36;;;11.83;83.97
65394;BME280;52002;49.760;6.512;2023-10-31T18:44:37;99287.94;;;11.82;83.95
65394;BME280;52002;49.760;6.512;2023-10-31T18:47:03;99285.39;;;11.81;83.82
65394;BME280;52002;49.760;6.512;2023-10-31T18:49:29;99288.70;;;11.80;83.62
65394;BME280;52002;49.760;6.512;2023-10-31T18:51:55;99297.22;;;11.79;83.83
65394;BME280;52002;49.760;6.512;2023-10-31T18:54:20;99298.86;;;11.79;83.84
65394;BME280;52002;49.760;6.512;2023-10-31T18:56:45;99299.89;;;11.79;83.86
65394;BME280;52002;49.760;6.512;2023-10-31T18:59:10;99296.59;;;11.78;83.98
65394;BME280;52002;49.760;6.512;2023-10-31T19:01:36;99297.11;;;11.80;84.08
65394;BME280;52002;49.760;6.512;2023-10-31T19:04:02;99294.72;;;11.80;83.72
65394;BME280;52002;49.760;6.512;2023-10-31T19:06:29;99290.89;;;11.80;83.56
65394;BME280;52002;49.760;6.512;2023-10-31T19:08:54;99285.89;;;11.81;84.02
65394;BME280;52002;49.760;6.512;2023-10-31T19:11:20;99282.92;;;11.83;83.92
65394;BME280;52002;49.760;6.512;2023-10-31T19:13:45;99283.10;;;11.82;83.89
65394;BME280;52002;49.760;6.512;2023-10-31T19:16:11;99282.81;;;11.82;83.73
65394;BME280;52002;49.760;6.512;2023-10-31T19:18:36;99276.02;;;11.79;83.88
65394;BME280;52002;49.760;6.512;2023-10-31T19:21:01;99277.56;;;11.79;83.93
65394;BME280;52002;49.760;6.512;2023-10-31T19:23:27;99280.98;;;11.81;84.24
65394;BME280;52002;49.760;6.512;2023-10-31T19:25:52;99282.12;;;11.82;84.22
65394;BME280;52002;49.760;6.512;2023-10-31T19:28:17;99286.54;;;11.84;84.30
65394;BME280;52002;49.760;6.512;2023-10-31T19:30:43;99291.63;;;11.85;84.13
65394;BME280;52002;49.760;6.512;2023-10-31T19:33:08;99294.88;;;11.86;84.16
65394;BME280;52002;49.760;6.512;2023-10-31T19:35:34;99296.82;;;11.88;84.49
65394;BME280;52002;49.760;6.512;2023-10-31T19:38:00;99298.20;;;11.90;84.24
65394;BME280;52002;49.760;6.512;2023-10-31T19:40:26;99292.22;;;11.91;84.29
65394;BME280;52002;49.760;6.512;2023-10-31T19:42:52;99291.48;;;11.91;84.05
65394;BME280;52002;49.760;6.512;2023-10-31T19:45:18;99291.66;;;11.93;84.22
65394;BME280;52002;49.760;6.512;2023-10-31T19:47:43;99289.29;;;11.95;84.12
65394;BME280;52002;49.760;6.512;2023-10-31T19:50:09;99293.60;;;11.96;84.17
65394;BME280;52002;49.760;6.512;2023-10-31T19:52:35;99297.00;;;11.96;84.01
65394;BME280;52002;49.760;6.512;2023-10-31T19:55:00;99297.00;;;11.98;84.14
65394;BME280;52002;49.760;6.512;2023-10-31T19:57:26;99294.26;;;11.99;84.15
65394;BME280;52002;49.760;6.512;2023-10-31T19:59:51;99299.52;;;11.97;83.88
65394;BME280;52002;49.760;6.512;2023-10-31T20:02:16;99296.34;;;11.96;84.06
65394;BME280;52002;49.760;6.512;2023-10-31T20:04:41;99293.56;;;11.95;83.89
65394;BME280;52002;49.760;6.512;2023-10-31T20:07:07;99297.41;;;11.94;84.02
65394;BME280;52002;49.760;6.512;2023-10-31T20:09:33;99304.58;;;11.94;84.01
65394;BME280;52002;49.760;6.512;2023-10-31T20:11:58;99303.46;;;11.93;84.15
65394;BME280;52002;49.760;6.512;2023-10-31T20:14:23;99298.96;;;11.89;83.92
65394;BME280;52002;49.760;6.512;2023-10-31T20:16:49;99306.75;;;11.88;84.11
65394;BME280;52002;49.760;6.512;2023-10-31T20:19:14;99304.64;;;11.86;84.26
65394;BME280;52002;49.760;6.512;2023-10-31T20:21:39;99302.29;;;11.85;84.27
65394;BME280;52002;49.760;6.512;2023-10-31T20:24:05;99299.77;;;11.83;84.24
65394;BME280;52002;49.760;6.512;2023-10-31T20:26:30;99299.15;;;11.82;84.09
65394;BME280;52002;49.760;6.512;2023-10-31T20:28:56;99296.39;;;11.82;84.21
65394;BME280;52002;49.760;6.512;2023-10-31T20:31:22;99296.42;;;11.81;84.37
65394;BME280;52002;49.760;6.512;2023-10-31T20:33:49;99290.90;;;11.80;84.58
65394;BME280;52002;49.760;6.512;2023-10-31T20:36:15;99291.02;;;11.79;84.31
65394;BME280;52002;49.760;6.512;2023-10-31T20:38:40;99290.09;;;11.76;84.15
65394;BME280;52002;49.760;6.512;2023-10-31T20:41:06;99289.05;;;11.74;84.31
65394;BME280;52002;49.760;6.512;2023-10-31T20:43:31;99292.42;;;11.74;84.39
65394;BME280;52002;49.760;6.512;2023-10-31T20:45:57;99292.86;;;11.72;84.41
65394;BME280;52002;49.760;6.512;2023-10-31T20:48:23;99294.35;;;11.71;84.41
65394;BME280;52002;49.760;6.512;2023-10-31T20:50:48;99290.31;;;11.72;84.56
65394;BME280;52002;49.760;6.512;2023-10-31T20:53:14;99291.18;;;11.72;84.47
65394;BME280;52002;49.760;6.512;2023-10-31T20:55:39;99289.77;;;11.72;84.62
65394;BME280;52002;49.760;6.512;2023-10-31T20:58:10;99287.91;;;11.73;84.61
65394;BME280;52002;49.760;6.512;2023-10-31T21:00:36;99286.05;;;11.75;84.77
65394;BME280;52002;49.760;6.512;2023-10-31T21:03:02;99285.09;;;11.76;84.65
65394;BME280;52002;49.760;6.512;2023-10-31T21:05:35;99284.09;;;11.78;84.69
65394;BME280;52002;49.760;6.512;2023-10-31T21:08:01;99288.02;;;11.80;84.52
65394;BME280;52002;49.760;6.512;2023-10-31T21:10:27;99285.56;;;11.83;84.78
65394;BME280;52002;49.760;6.512;2023-10-31T21:12:53;99287.32;;;11.85;84.71
65394;BME280;52002;49.760;6.512;2023-10-31T21:15:18;99285.30;;;11.87;84.85
65394;BME280;52002;49.760;6.512;2023-10-31T21:17:44;99284.05;;;11.90;84.76
65394;BME280;52002;49.760;6.512;2023-10-31T21:20:10;99282.93;;;11.93;84.76
65394;BME280;52002;49.760;6.512;2023-10-31T21:22:35;99282.27;;;11.96;84.65
65394;BME280;52002;49.760;6.512;2023-10-31T21:25:01;99279.56;;;11.97;84.74
65394;BME280;52002;49.760;6.512;2023-10-31T21:27:28;99280.12;;;11.97;84.56
65394;BME280;52002;49.760;6.512;2023-10-31T21:29:54;99282.11;;;11.97;84.40
65394;BME280;52002;49.760;6.512;2023-10-31T21:32:19;99282.29;;;11.97;84.45
65394;BME280;52002;49.760;6.512;2023-10-31T21:34:44;99286.73;;;11.97;84.33
65394;BME280;52002;49.760;6.512;2023-10-31T21:37:10;99281.41;;;11.95;84.26
65394;BME280;52002;49.760;6.512;2023-10-31T21:39:36;99275.05;;;11.95;84.37
65394;BME280;52002;49.760;6.512;2023-10-31T21:42:02;99276.82;;;11.95;84.28
65394;BME280;52002;49.760;6.512;2023-10-31T21:44:27;99276.68;;;11.93;84.27
65394;BME280;52002;49.760;6.512;2023-10-31T21:46:54;99276.27;;;11.92;84.58
65394;BME280;52002;49.760;6.512;2023-10-31T21:49:22;99278.84;;;11.93;84.69
65394;BME280;52002;49.760;6.512;2023-10-31T21:51:48;99274.64;;;11.94;84.55
65394;BME280;52002;49.760;6.512;2023-10-31T21:54:14;99270.86;;;11.95;84.76
65394;BME280;52002;49.760;6.512;2023-10-31T21:56:39;99262.96;;;11.97;84.99
65394;BME280;52002;49.760;6.512;2023-10-31T21:59:05;99263.23;;;11.99;84.94
65394;BME280;52002;49.760;6.512;2023-10-31T22:01:30;99258.72;;;11.99;84.67
65394;BME280;52002;49.760;6.512;2023-10-31T22:03:56;99259.79;;;11.99;84.83
65394;BME280;52002;49.760;6.512;2023-10-31T22:06:21;99257.12;;;12.01;84.85
65394;BME280;52002;49.760;6.512;2023-10-31T22:08:46;99257.43;;;12.02;84.84
65394;BME280;52002;49.760;6.512;2023-10-31T22:11:12;99261.80;;;12.03;84.70
65394;BME280;52002;49.760;6.512;2023-10-31T22:13:37;99261.01;;;12.05;84.84
65394;BME280;52002;49.760;6.512;2023-10-31T22:16:02;99260.81;;;12.07;84.92
65394;BME280;52002;49.760;6.512;2023-10-31T22:18:28;99256.97;;;12.08;84.80
65394;BME280;52002;49.760;6.512;2023-10-31T22:20:54;99252.89;;;12.06;84.50
65394;BME280;52002;49.760;6.512;2023-10-31T22:23:19;99252.78;;;12.05;84.66
65394;BME280;52002;49.760;6.512;2023-10-31T22:25:45;99254.83;;;12.06;84.79
65394;BME280;52002;49.760;6.512;2023-10-31T22:28:10;99258.56;;;12.06;84.75
65394;BME280;52002;49.760;6.512;2023-10-31T22:30:35;99256.45;;;12.06;84.49
65394;BME280;52002;49.760;6.512;2023-10-31T22:33:02;99257.03;;;12.02;84.66
65394;BME280;52002;49.760;6.512;2023-10-31T22:35:27;99255.14;;;11.99;84.40
65394;BME280;52002;49.760;6.512;2023-10-31T22:37:52;99262.30;;;11.97;84.60
65394;BME280;52002;49.760;6.512;2023-10-31T22:40:18;99261.57;;;11.97;84.97
65394;BME280;52002;49.760;6.512;2023-10-31T22:42:43;99258.03;;;11.97;84.87
65394;BME280;52002;49.760;6.512;2023-10-31T22:45:09;99251.98;;;11.95;84.91
65394;BME280;52002;49.760;6.512;2023-10-31T22:47:34;99247.39;;;11.93;84.68
65394;BME280;52002;49.760;6.512;2023-10-31T22:50:07;99249.55;;;11.90;84.73
65394;BME280;52002;49.760;6.512;2023-10-31T22:52:33;99254.26;;;11.89;84.81
65394;BME280;52002;49.760;6.512;2023-10-31T22:54:59;99255.63;;;11.88;85.01
65394;BME280;52002;49.760;6.512;2023-10-31T22:57:24;99255.26;;;11.88;85.16
65394;BME280;52002;49.760;6.512;2023-10-31T22:59:49;99258.98;;;11.88;85.27
65394;BME280;52002;49.760;6.512;2023-10-31T23:02:15;99255.36;;;11.89;85.38
65394;BME280;52002;49.760;6.512;2023-10-31T23:04:41;99249.98;;;11.91;85.57
65394;BME280;52002;49.760;6.512;2023-10-31T23:07:07;99242.47;;;11.93;85.44
65394;BME280;52002;49.760;6.512;2023-10-31T23:09:34;99244.91;;;11.92;85.33
65394;BME280;52002;49.760;6.512;2023-10-31T23:11:59;99249.19;;;11.91;85.54
65394;BME280;52002;49.760;6.512;2023-10-31T23:14:25;99243.98;;;11.92;85.63
65394;BME280;52002;49.760;6.512;2023-10-31T23:16:50;99248.86;;;11.94;85.65
65394;BME280;52002;49.760;6.512;2023-10-31T23:19:15;99247.55;;;11.95;85.46
65394;BME280;52002;49.760;6.512;2023-10-31T23:21:41;99248.54;;;11.94;85.68
65394;BME280;52002;49.760;6.512;2023-10-31T23:24:07;99245.72;;;11.94;85.44
65394;BME280;52002;49.760;6.512;2023-10-31T23:26:33;99249.06;;;11.94;85.49
65394;BME280;52002;49.760;6.512;2023-10-31T23:28:58;99249.93;;;11.95;85.55
65394;BME280;52002;49.760;6.512;2023-10-31T23:31:24;99248.08;;;11.95;85.59
65394;BME280;52002;49.760;6.512;2023-10-31T23:33:50;99245.83;;;11.94;85.57
65394;BME280;52002;49.760;6.512;2023-10-31T23:36:15;99241.44;;;11.94;85.62
65394;BME280;52002;49.760;6.512;2023-10-31T23:38:40;99245.59;;;11.95;85.60
65394;BME280;52002;49.760;6.512;2023-10-31T23:41:06;99244.36;;;11.95;85.66
65394;BME280;52002;49.760;6.512;2023-10-31T23:43:31;99241.31;;;11.95;85.57
65394;BME280;52002;49.760;6.512;2023-10-31T23:45:56;99247.04;;;11.95;85.61
65394;BME280;52002;49.760;6.512;2023-10-31T23:48:22;99246.73;;;11.96;85.68
65394;BME280;52002;49.760;6.512;2023-10-31T23:50:47;99240.94;;;11.93;85.64
65394;BME280;52002;49.760;6.512;2023-10-31T23:53:12;99242.40;;;11.93;85.58
65394;BME280;52002;49.760;6.512;2023-10-31T23:55:38;99241.57;;;11.93;85.74
65394;BME280;52002;49.760;6.512;2023-10-31T23:58:03;99237.77;;;11.92;85.98
